Flight Track Log - Related Links

Times and Time Zones

All times are in EDT time to prevent confusion due to time zone crossing. See the N510SR flight status page for this flight to view local times or setup timezone preferences in your user account.

Time Position Orientation Groundspeed Altitude Reporting Facility
EDT Latitude Longitude Course Direction KTS MPH feet Rate Location/Type
Wed 04:02:20 PM 32.8333 -96.8333 124° Southeast 165 190 1,200  Level Dallas / Fort Worth TRACON
Wed 04:04:47 PM 32.7625 -96.7069 124° Southeast 231 266 6,600 2,087 Climbing Fort Worth Center
Wed 04:05:47 PM 32.8397 -96.6889 11° North 199 229 8,400 2,250 Climbing Fort Worth Center
Wed 04:06:47 PM 32.9231 -96.6783 North 269 310 11,100 2,450 Climbing Fort Worth Center
Wed 04:07:47 PM 32.9708 -96.6161 48° Northeast 277 319 13,300 2,000 Climbing Fort Worth Center
Wed 04:08:47 PM 32.9719 -96.5047 89° East 271 312 15,100 1,850 Climbing Fort Worth Center
Wed 04:09:47 PM 32.9878 -96.3806 81° East 324 373 17,000 1,500 Climbing Fort Worth Center
Wed 04:10:47 PM 32.9994 -96.2642 83° East 378 435 18,100 1,250 Climbing Fort Worth Center
Wed 04:11:47 PM 33.0167 -96.1178 82° East 407 468 19,500 1,450 Climbing Fort Worth Center
Wed 04:12:47 PM 33.0300 -95.9911 83° East 422 486 21,000 1,500 Climbing Fort Worth Center
Wed 04:13:47 PM 33.0469 -95.8347 83° East 430 495 22,500 1,050 Climbing Fort Worth Center
Wed 04:14:47 PM 33.0619 -95.7006 82° East 441 507 23,100 1,140 Climbing Fort Worth Center
Wed 04:15:48 PM 33.0847 -95.5514 80° East 448 516 24,800 1,400 Climbing Fort Worth Center
Wed 04:16:47 PM 33.1200 -95.4044 74° East 453 521 25,900 1,160 Climbing Fort Worth Center
Wed 04:17:47 PM 33.1675 -95.2519 70° East 465 535 27,100 1,650 Climbing Fort Worth Center
Wed 04:18:47 PM 33.2169 -95.0869 70° East 465 535 29,200 1,850 Climbing Fort Worth Center
Wed 04:19:47 PM 33.2619 -94.9392 70° East 471 542 30,800 1,800 Climbing Fort Worth Center
Wed 04:20:47 PM 33.3133 -94.7961 67° East 471 542 32,800 1,800 Climbing Fort Worth Center
Wed 04:21:47 PM 33.3689 -94.6575 64° Northeast 466 536 34,400 1,500 Climbing Fort Worth Center
Wed 04:22:47 PM 33.4242 -94.5164 65° Northeast 461 531 35,800 1,400 Climbing Fort Worth Center
Wed 04:23:47 PM 33.4772 -94.3778 65° Northeast 461 531 37,200 1,350 Climbing Fort Worth Center
Wed 04:24:47 PM 33.5281 -94.2389 66° East 456 525 38,500 1,300 Climbing Fort Worth Center
Wed 04:25:47 PM 33.5808 -94.0975 66° East 456 525 39,800 1,150 Climbing Fort Worth Center
Wed 04:26:47 PM 33.6314 -93.9583 66° East 456 525 40,800 600 Climbing Fort Worth Center
Wed 04:27:47 PM 33.6794 -93.8167 68° East 456 525 41,000 100 Climbing Fort Worth Center
Wed 04:28:47 PM 33.7317 -93.6722 66° East 459 528 41,000 50 Level Fort Worth Center
Wed 04:29:47 PM 33.7833 -93.5225 67° East 470 541 41,100 54 Climbing Fort Worth Center
Wed 04:30:39 PM 33.8292 -93.3928 67° East 474 545 41,100  Level Memphis Center
Wed 04:31:39 PM 33.8828 -93.2422 67° East 474 545 41,100  Level Memphis Center
Wed 04:32:39 PM 33.9364 -93.0911 67° East 479 551 41,100  Level Memphis Center
Wed 04:33:39 PM 33.9917 -92.9375 67° East 484 557 41,100  Level Memphis Center
Wed 04:34:39 PM 34.0447 -92.7864 67° East 489 563 41,100  Level Memphis Center
Wed 04:35:39 PM 34.0936 -92.6297 69° East 494 568 41,100  Level Memphis Center
Wed 04:36:39 PM 34.1464 -92.4831 66° East 489 563 41,100  Level Memphis Center
Wed 04:37:39 PM 34.1989 -92.3261 68° East 489 563 41,100  Level Memphis Center
Wed 04:38:39 PM 34.2514 -92.1689 68° East 494 568 41,100  Level Memphis Center
Wed 04:39:39 PM 34.3036 -92.0167 67° East 494 568 41,100  Level Memphis Center
Wed 04:40:39 PM 34.3536 -91.8667 68° East 494 568 41,100  Level Memphis Center
Wed 04:41:39 PM 34.3967 -91.7417 67° East 494 568 41,100  Level Memphis Center
Wed 04:42:39 PM 34.4547 -91.5786 67° East 483 556 41,100  Level Memphis Center
Wed 04:43:39 PM 34.5064 -91.4208 68° East 493 567 41,100  Level Memphis Center
Wed 04:44:39 PM 34.5556 -91.2700 68° East 493 567 41,100  Level Memphis Center
Wed 04:45:39 PM 34.6131 -91.0992 68° East 493 567 41,100  Level Memphis Center
Wed 04:46:39 PM 34.6639 -90.9481 68° East 493 567 41,100  Level Memphis Center
Wed 04:47:39 PM 34.7144 -90.7892 69° East 488 562 41,100  Level Memphis Center
Wed 04:48:39 PM 34.7650 -90.6378 68° East 495 570 41,100  Level Memphis Center
Wed 04:49:39 PM 34.8153 -90.4811 69° East 488 562 41,100  Level Memphis Center
Wed 04:50:39 PM 34.8656 -90.3242 69° East 488 562 41,100  Level Memphis Center
Wed 04:51:39 PM 34.9175 -90.1697 68° East 488 562 41,100  Level Memphis Center
Wed 04:52:39 PM 34.9653 -90.0303 67° East 493 567 41,100  Level Memphis Center
Wed 04:53:39 PM 35.0211 -89.8728 67° East 499 574 41,100  Level Memphis Center
Wed 04:54:39 PM 35.0661 -89.7075 72° East 508 585 41,100  Level Memphis Center
Wed 04:55:39 PM 35.1172 -89.5319 70° East 503 579 41,100  Level Memphis Center
Wed 04:56:39 PM 35.1661 -89.3767 69° East 489 563 41,100  Level Memphis Center
Wed 04:57:39 PM 35.2128 -89.2211 70° East 489 563 41,100  Level Memphis Center
Wed 04:58:39 PM 35.2633 -89.0600 69° East 494 568 41,100  Level Memphis Center
Wed 04:59:39 PM 35.3094 -88.9017 70° East 489 563 41,100  Level Memphis Center
Wed 05:00:39 PM 35.3597 -88.7456 68° East 494 568 41,100  Level Memphis Center
Wed 05:01:39 PM 35.4078 -88.5892 69° East 489 563 41,100  Level Memphis Center
Wed 05:02:39 PM 35.4472 -88.4431 72° East 489 563 41,100  Level Memphis Center
Wed 05:03:39 PM 35.4969 -88.2839 69° East 494 568 41,100  Level Memphis Center
Wed 05:04:39 PM 35.5439 -88.1142 71° East 494 568 41,100  Level Memphis Center
Wed 05:05:39 PM 35.5953 -87.9622 67° East 483 556 41,100  Level Memphis Center
Wed 05:06:39 PM 35.6422 -87.8025 70° East 483 556 41,100  Level Memphis Center
Wed 05:07:39 PM 35.6869 -87.6453 71° East 490 564 41,100  Level Memphis Center
Wed 05:08:39 PM 35.7333 -87.4850 70° East 490 564 41,100  Level Memphis Center
Wed 05:09:39 PM 35.7794 -87.3247 70° East 490 564 41,100  Level Memphis Center
Wed 05:10:39 PM 35.8256 -87.1644 70° East 490 564 41,100  Level Memphis Center
Wed 05:11:39 PM 35.8714 -87.0039 71° East 490 564 41,100  Level Memphis Center
Wed 05:12:39 PM 35.9169 -86.8456 70° East 490 564 41,100  Level Memphis Center
Wed 05:13:39 PM 35.9625 -86.6872 70° East 490 564 41,100  Level Memphis Center
Wed 05:14:39 PM 36.0056 -86.5236 72° East 490 564 41,100  Level Memphis Center
Wed 05:15:39 PM 36.0525 -86.3647 70° East 490 564 41,100  Level Memphis Center
Wed 05:16:39 PM 36.0972 -86.2033 71° East 495 570 41,100  Level Memphis Center
Wed 05:17:39 PM 36.1419 -86.0444 71° East 490 564 41,100  Level Memphis Center
Wed 05:19:28 PM 36.2167 -85.7803 71° East 489 563 41,100  Level Indianapolis Center
Wed 05:20:30 PM 36.2611 -85.6192 71° East 490 564 41,100  Level Indianapolis Center
Wed 05:21:32 PM 36.3144 -85.4242 71° East 494 568 41,100  Level Indianapolis Center
Wed 05:22:34 PM 36.3578 -85.2611 72° East 493 567 41,100  Level Indianapolis Center
Wed 05:23:36 PM 36.4017 -85.0975 72° East 494 568 41,100  Level Indianapolis Center
Wed 05:24:38 PM 36.4447 -84.9342 72° East 494 568 41,100  Level Indianapolis Center
Wed 05:25:40 PM 36.4883 -84.7681 72° East 498 573 41,100  Level Indianapolis Center
Wed 05:26:43 PM 36.5303 -84.6053 72° East 494 568 41,100  Level Indianapolis Center
Wed 05:27:45 PM 36.5786 -84.4236 72° East 493 567 41,100  Level Indianapolis Center
Wed 05:28:47 PM 36.6200 -84.2597 72° East 493 567 41,100  Level Indianapolis Center
Wed 05:29:49 PM 36.6628 -84.0958 72° East 497 572 41,100  Level Indianapolis Center
Wed 05:30:51 PM 36.7036 -83.9328 73° East 493 567 41,100  Level Indianapolis Center
Wed 05:31:53 PM 36.7553 -83.7444 71° East 490 564 41,100  Level Indianapolis Center
Wed 05:32:55 PM 36.7956 -83.5783 73° East 499 574 41,100  Level Indianapolis Center
Wed 05:33:57 PM 36.8364 -83.4150 73° East 496 571 41,100  Level Indianapolis Center
Wed 05:34:59 PM 36.8772 -83.2497 73° East 496 571 41,100  Level Indianapolis Center
Wed 05:36:01 PM 36.9181 -83.0853 73° East 492 566 41,100  Level Indianapolis Center
Wed 05:37:03 PM 36.9672 -82.9061 71° East 493 567 41,100  Level Indianapolis Center
Wed 05:38:05 PM 37.0025 -82.7419 75° East 504 580 41,100  Level Indianapolis Center
Wed 05:39:07 PM 37.0419 -82.5764 73° East 499 574 41,100  Level Indianapolis Center
Wed 05:40:09 PM 37.0883 -82.3844 73° East 491 565 41,100  Level Indianapolis Center
Wed 05:41:12 PM 37.1278 -82.2211 73° East 491 565 41,100  Level Indianapolis Center
Wed 05:42:14 PM 37.1672 -82.0542 73° East 496 571 41,100  Level Indianapolis Center
Wed 05:43:16 PM 37.2058 -81.8894 74° East 493 567 41,100  Level Indianapolis Center
Wed 05:44:18 PM 37.2456 -81.7231 73° East 496 571 41,100  Level Indianapolis Center
Wed 05:45:20 PM 37.2836 -81.5567 74° East 496 571 41,100  Level Indianapolis Center
Wed 05:46:22 PM 37.3219 -81.3917 74° East 489 563 41,100  Level Indianapolis Center
Wed 05:47:24 PM 37.3656 -81.2006 74° East 487 560 41,100  Level Indianapolis Center
Wed 05:48:26 PM 37.4008 -81.0411 74° East 487 560 41,100  Level Indianapolis Center
Wed 05:49:28 PM 37.4364 -80.8808 74° East 489 563 41,100  Level Indianapolis Center
Wed 05:50:30 PM 37.4806 -80.6867 74° East 493 567 41,100  Level Indianapolis Center
Wed 05:51:08 PM 37.5017 -80.5894 75° East 501 577 41,100  Level Washington Center
Wed 05:52:06 PM 37.5378 -80.4242 75° East 501 577 41,100  Level Washington Center
Wed 05:53:06 PM 37.5728 -80.2744 74° East 501 577 41,100  Level Washington Center
Wed 05:54:07 PM 37.6086 -80.1061 75° East 509 586 41,100  Level Washington Center
Wed 05:55:08 PM 37.6439 -79.9431 75° East 503 579 41,100  Level Washington Center
Wed 05:56:06 PM 37.6861 -79.7539 74° East 504 580 41,100  Level Washington Center
Wed 05:57:07 PM 37.7203 -79.6033 74° East 495 570 41,100  Level Washington Center
Wed 05:58:07 PM 37.7572 -79.4347 74° East 495 570 41,100  Level Washington Center
Wed 05:59:06 PM 37.7939 -79.2631 75° East 495 570 41,100  Level Washington Center
Wed 06:00:06 PM 37.8306 -79.0781 76° East 489 563 41,100  Level Washington Center
Wed 06:01:08 PM 37.8644 -78.9114 76° East 489 563 41,100  Level Washington Center
Wed 06:02:08 PM 37.8983 -78.7392 76° East 489 563 41,100  Level Washington Center
Wed 06:03:07 PM 37.9317 -78.5747 76° East 489 563 41,100  Level Washington Center
Wed 06:04:07 PM 37.9647 -78.4206 75° East 489 563 41,100  Level Washington Center
Wed 06:05:08 PM 38.0019 -78.2506 74° East 489 563 41,100 -50 Level Washington Center
Wed 06:06:08 PM 38.0469 -78.0942 70° East 482 555 41,000 -610 Descending Washington Center
Wed 06:07:06 PM 38.1189 -77.9433 59° Northeast 482 555 39,900 -1,169 Descending Washington Center
Wed 06:08:06 PM 38.1906 -77.7950 58° Northeast 487 560 38,700 -1,091 Descending Washington Center
Wed 06:09:07 PM 38.2642 -77.6464 58° Northeast 492 566 37,700 -787 Descending Washington Center
Wed 06:10:08 PM 38.3375 -77.5003 57° Northeast 492 566 37,100 -298 Descending Washington Center
Wed 06:11:08 PM 38.4125 -77.3539 57° Northeast 492 566 37,100  Level Washington Center
Wed 06:12:06 PM 38.5000 -77.2233 49° Northeast 487 560 37,100 -102 Level Washington Center
Wed 06:13:06 PM 38.5975 -77.1058 43° Northeast 482 555 36,900 -1,190 Descending Washington Center
Wed 06:14:07 PM 38.6925 -76.9881 44° Northeast 471 542 34,700 -2,033 Descending Washington Center
Wed 06:15:07 PM 38.7836 -76.8753 44° Northeast 459 528 32,800 -1,950 Descending Washington Center
Wed 06:16:07 PM 38.8786 -76.7569 44° Northeast 459 528 30,800 -1,967 Descending Washington Center
Wed 06:17:09 PM 38.9733 -76.6383 44° Northeast 459 528 28,800 -1,950 Descending Washington Center
Wed 06:18:07 PM 39.0619 -76.5272 44° Northeast 454 522 26,900 -1,866 Descending Washington Center
Wed 06:19:08 PM 39.1481 -76.4214 44° Northeast 440 506 25,100 -1,438 Descending Washington Center
Wed 06:20:08 PM 39.2342 -76.3150 44° Northeast 427 491 24,000 -496 Descending Washington Center
Wed 06:21:09 PM 39.3142 -76.2086 46° Northeast 417 480 24,100 -254 Climbing Washington Center
Wed 06:22:06 PM 39.4106 -76.0939 43° Northeast 417 480 23,500 -1,736 Descending Washington Center
Wed 06:23:48 PM 39.5500 -75.9167 44° Northeast 397 457 19,500 -2,286 Descending Philadelphia TRACON
Wed 06:24:54 PM 39.6333 -75.8000 47° Northeast 381 438 17,100 -2,095 Descending Philadelphia TRACON
Wed 06:25:54 PM 39.7000 -75.7167 44° Northeast 365 420 15,100 -2,000 Descending Philadelphia TRACON
Wed 06:26:42 PM 39.7667 -75.6500 38° Northeast 355 409 13,500 -1,053 Descending Philadelphia TRACON
Wed 06:27:48 PM 39.8500 -75.5500 43° Northeast 350 403 13,100 -190 Descending Philadelphia TRACON
Wed 06:28:48 PM 39.9333 -75.4833 32° Northeast 354 407 13,100  Level Philadelphia TRACON
Wed 06:29:54 PM 40.0167 -75.4000 37° Northeast 350 403 13,100  Level Philadelphia TRACON
Wed 06:30:54 PM 40.0833 -75.3333 37° Northeast 296 341 13,100  Level Philadelphia TRACON
Wed 06:31:54 PM 40.1500 -75.2667 37° Northeast 305 351 13,100 -1,128 Level Philadelphia TRACON
Wed 06:34:00 PM 40.2683 -75.1484 37° Northeast  Level FlightAware Approximate
Wed 06:34:48 PM 40.3500 -75.0833 37° Northeast 288 331 8,700  Level New York TRACON
Wed 06:35:48 PM 40.4000 -75.0000 52° Northeast 284 327 7,200 -1,267 Descending New York TRACON
Wed 06:37:00 PM 40.4957 -74.8461 52° Northeast  Level FlightAware Approximate
Wed 06:37:48 PM 40.5000 -74.8500 52° Northeast 272 313 4,900  Level New York TRACON
Wed 06:38:48 PM 40.5667 -74.8000 30° Northeast 271 312 4,100 -400 Descending New York TRACON
Wed 06:39:48 PM 40.6333 -74.7333 37° Northeast 275 316 4,100  Level New York TRACON
Wed 06:40:48 PM 40.6833 -74.6667 45° Northeast 274 315 4,100  Level New York TRACON
Wed 06:41:48 PM 40.7500 -74.6000 37° Northeast 275 316 4,100  Level New York TRACON
Wed 06:42:48 PM 40.8000 -74.5500 37° Northeast 273 314 4,100  Level New York TRACON
Wed 06:43:48 PM 40.8667 -74.4833 37° Northeast 274 315 4,100 -50 Level New York TRACON
Wed 06:44:48 PM 40.9167 -74.4167 45° Northeast 270 311 4,000 -347 Descending New York TRACON
Wed 06:45:49 PM 40.9667 -74.3500 45° Northeast 272 313 3,400 -600 Descending New York TRACON
Wed 06:46:48 PM 40.9833 -74.2500 78° East 272 313 2,800 -632 Descending New York TRACON
Wed 06:47:43 PM 41.0000 -74.1667 75° East 263 303 2,200 -350 Descending New York TRACON
Wed 06:48:48 PM 40.9833 -74.0833 105° East 238 274 2,100 -192 Descending New York TRACON
Wed 06:49:48 PM 40.9500 -74.0500 143° Southeast 198 228 1,800 -600 Descending New York TRACON
Wed 06:50:48 PM 40.9000 -74.0500 180° South 153 176 900 -900 Descending New York TRACON

Login

Don't have an account? Register now (free) for customized features, flight alerts, and more!